Detall de PIREP

Printer-friendly versionPDF version

[2014/09/27 14:49:00]
Flight IATA:CT1054
Pilot Number:012
Company ICAO:CAT
Aircraft Type:F50/A
PAX:50
Aircraft Registration:PAOB
Departing Airport: LICD
Destination Airport: LIEA
Alternate Airport:LIEO
Online: VATSIM
Route:VERAK UM740 MEGAN UM732 SODIO
Flight Level:F240
No Slew and time accel
No pause
Crash detect
Detect pilot in Cockpit between each 30 and 45 minutes
14:49 Zero fuel Weight: 36848 Lbs, Fuel Weight: 5817 Lbs
14:49 VATSIM:LICD 271350Z 02009KT 9999 FEW030 26/18 Q1021
14:49 VATSIM:LIEA 271420Z 28007KT 250V330 CAVOK 27/11 Q1023
14:49 MEDITERRANEAN ODYSSEY
15:00 Parking Brakes off
15:04 Take-off
15:04 Take off Weight: 42543 Lbs
15:04 Wind: 017º @ 009 Knots Heading: 075º
15:04 POS N35º 29´ 51´´ E012º 37´ 12´´
15:04 Gear Up: 120 Knots
15:04 Flaps:2 at 120 Knots
15:04 Flaps:1 at 153 Knots
15:04 Flaps:0 at 156 Knots
15:19 Wind:324º@002 Knots Heading: 337º Ground Speed: 204 Knots Altitude 19225 ft
15:27 TOC
15:27 Fuel Weight: 4966 Lb
15:34 Wind:098º@016 Knots Heading: 007º Ground Speed: 253 Knots Altitude 24268 ft
15:49 Wind:072º@013 Knots Heading: 311º Ground Speed: 258 Knots Altitude 24265 ft
16:04 Wind:107º@017 Knots Heading: 309º Ground Speed: 266 Knots Altitude 24281 ft
16:19 Wind:107º@017 Knots Heading: 330º Ground Speed: 263 Knots Altitude 24294 ft
16:24 TOD
16:24 Fuel Weight: 3678 Lb
16:34 Wind:121º@004 Knots Heading: 323º Ground Speed: 266 Knots Altitude 10515 ft
16:39 Flaps:1 at 170 Knots
16:39 Gear Down: 164 Knots
16:39 Flaps:2 at 153 Knots
16:39 Flaps:3 at 144 Knots
16:40 Flaps:4 at 133 Knots
16:40 Flaps:5 at 124 Knots
16:40 Flaps:6 at 117 Knots
16:41 TouchDown:Rate -341 ft/min Speed: 96 Knots
16:41 VATSIM:LIEA 271620Z 03008KT CAVOK 26/13 Q1023
16:41 Land
16:41 Wind:082º@008 Knots
16:41 Heading: 026º
16:41 Flight Duration: 01:37
16:41 Landing Weight: 40272 Lbs
16:41 POS N40º 37´ 28´´ E008º 17´ 10´´
16:42 Parking brakes on
16:42 Block to Block Duration: 01:42
16:42 Final Fuel: 3412 Lbls
16:42 Spent Fuel: 2405 Lbls
16:42 Flight Length: 391 NM
16:42 TOD Land Length: 73 NM

Exportar CSV

Powered by Drupal - Modified by Danger4k